Juergen K — PBKV — position and weather

sailwx.info

Track history (hours):
 
Tides and Currents Weather Stations Pressure Air Temp Water Temp Dewpoint Dewpoint Depression Visibility Wind Speed Wind Dir Waves Ship Positions

Juergen K

Last reported at 2016-Jul-26 15:19 UTC. Time now 2016-Jul-27 03:48 UTC.
Position N 38°34' E 003°34'.

Length 89 m; draft 3.6 m.

Type: Cargo ship. MMSI: 244329000.

Date/timePositionNaut miles runAvg speedWind from/ knotsBaromVisibWave heightAir tempDewpointWater temp
2016-Jul-26 15:19N 38°34' E 003°34'810.7
2016-Jul-26 14:33N 38°32' E 003°24'8 8.2
2016-Jul-26 13:33N 38°29' E 003°14'6 5.9
2016-Jul-26 12:31N 38°27' E 003°07'1010.5
2016-Jul-26 11:32N 38°24' E 002°54'1010.4
2016-Jul-26 10:33N 38°21' E 002°42'1210.2
2016-Jul-26 09:26N 38°16' E 002°28'2010.1
2016-Jul-26 07:26N 38°10' E 002°04'9010.8
2016-Jul-25 23:04N 37°42' E 000°15'1710.9
2016-Jul-25 21:31N 37°36' W 000°05'1111.0
2016-Jul-25 20:33N 37°33' W 000°17'1110.8
2016-Jul-25 19:34N 37°30' W 000°30'1111.5
2016-Jul-25 18:33N 37°31' W 000°45'  
2016-Jul-22 21:13N 35°59' W 005°12'1014.6
2016-Jul-22 20:34N 35°58' W 005°24'228 9.1
2016-Jul-21 19:32N 37°29' W 009°45'1010.5
2016-Jul-21 18:33N 37°39' W 009°48'2010.0
2016-Jul-21 16:33N 37°58' W 009°53'1010.1
2016-Jul-21 15:33N 38°08' W 009°56'1110.8
2016-Jul-21 14:33N 38°19' W 009°59'1110.9
2016-Jul-21 13:30N 38°30' W 010°03'1111.3
2016-Jul-21 12:30N 38°41' W 010°06'46210.1
2016-Jul-19 14:32N 46°13' W 007°54'12410.2
2016-Jul-19 02:28N 48°01' W 006°28'9110.1
2016-Jul-18 17:29N 49°11' W 004°59'37 9.2
2016-Jul-18 13:29N 49°29' W 004°11'1010.5
2016-Jul-18 12:33N 49°34' W 003°58'1111.3
2016-Jul-18 11:33N 49°40' W 003°43'1411.6
2016-Jul-18 10:20N 49°47' W 003°24'911.1
2016-Jul-18 09:33N 49°52' W 003°12'1010.3
2016-Jul-18 08:33N 49°57' W 002°59'10 9.3
2016-Jul-18 07:28N 50°00' W 002°44'61 9.9
2016-Jul-18 01:20N 50°18' W 001°14'1013.0
2016-Jul-18 00:33N 50°21' W 000°58'2411.9
2016-Jul-17 22:33N 50°28' W 000°23'1010.2
2016-Jul-17 21:32N 50°31' W 000°07'9 9.4
2016-Jul-17 20:33N 50°34' E 000°07'9 8.6
2016-Jul-17 19:33N 50°36' E 000°20'10 8.7
2016-Jul-17 18:24N 50°39' E 000°35'3110.6
2016-Jul-17 15:32N 50°57' E 001°14'1110.9
2016-Jul-17 14:33N 51°04' E 001°27'10 9.9
2016-Jul-17 13:33N 51°10' E 001°39'9 8.8
2016-Jul-17 12:33N 51°17' E 001°48'9 8.6
2016-Jul-17 11:33N 51°24' E 001°55'9 8.9
2016-Jul-17 10:33N 51°32' E 002°03'10 9.5
2016-Jul-17 09:31N 51°39' E 002°14'15310.1
2016-Jul-16 18:27N 53°34' E 005°00'8 9.1
2016-Jul-16 17:33N 53°36' E 005°13'8 8.2
2016-Jul-16 16:33N 53°39' E 005°26'8 8.3
2016-Jul-16 15:34N 53°42' E 005°39'  
Track history (hours):
 
Tides and Currents Weather Stations Pressure Air Temp Water Temp Dewpoint Dewpoint Depression Visibility Wind Speed Wind Dir Waves Ship Positions

Juergen K

Last reported at 2016-Jul-26 15:19 UTC. Time now 2016-Jul-27 03:48 UTC.
Position N 38°34' E 003°34'.

Length 89 m; draft 3.6 m.

Type: Cargo ship. MMSI: 244329000.

Date/timePositionNaut miles runAvg speedWind from/ knotsBaromVisibWave heightAir tempDewpointWater temp
2016-Jul-26 15:19N 38°34' E 003°34'810.7
2016-Jul-26 14:33N 38°32' E 003°24'8 8.2
2016-Jul-26 13:33N 38°29' E 003°14'6 5.9
2016-Jul-26 12:31N 38°27' E 003°07'1010.5
2016-Jul-26 11:32N 38°24' E 002°54'1010.4
2016-Jul-26 10:33N 38°21' E 002°42'1210.2
2016-Jul-26 09:26N 38°16' E 002°28'2010.1
2016-Jul-26 07:26N 38°10' E 002°04'9010.8
2016-Jul-25 23:04N 37°42' E 000°15'1710.9
2016-Jul-25 21:31N 37°36' W 000°05'1111.0
2016-Jul-25 20:33N 37°33' W 000°17'1110.8
2016-Jul-25 19:34N 37°30' W 000°30'1111.5
2016-Jul-25 18:33N 37°31' W 000°45'  
2016-Jul-22 21:13N 35°59' W 005°12'1014.6
2016-Jul-22 20:34N 35°58' W 005°24'228 9.1
2016-Jul-21 19:32N 37°29' W 009°45'1010.5
2016-Jul-21 18:33N 37°39' W 009°48'2010.0
2016-Jul-21 16:33N 37°58' W 009°53'1010.1
2016-Jul-21 15:33N 38°08' W 009°56'1110.8
2016-Jul-21 14:33N 38°19' W 009°59'1110.9
2016-Jul-21 13:30N 38°30' W 010°03'1111.3
2016-Jul-21 12:30N 38°41' W 010°06'46210.1
2016-Jul-19 14:32N 46°13' W 007°54'12410.2
2016-Jul-19 02:28N 48°01' W 006°28'9110.1
2016-Jul-18 17:29N 49°11' W 004°59'37 9.2
2016-Jul-18 13:29N 49°29' W 004°11'1010.5
2016-Jul-18 12:33N 49°34' W 003°58'1111.3
2016-Jul-18 11:33N 49°40' W 003°43'1411.6
2016-Jul-18 10:20N 49°47' W 003°24'911.1
2016-Jul-18 09:33N 49°52' W 003°12'1010.3
2016-Jul-18 08:33N 49°57' W 002°59'10 9.3
2016-Jul-18 07:28N 50°00' W 002°44'61 9.9
2016-Jul-18 01:20N 50°18' W 001°14'1013.0
2016-Jul-18 00:33N 50°21' W 000°58'2411.9
2016-Jul-17 22:33N 50°28' W 000°23'1010.2
2016-Jul-17 21:32N 50°31' W 000°07'9 9.4
2016-Jul-17 20:33N 50°34' E 000°07'9 8.6
2016-Jul-17 19:33N 50°36' E 000°20'10 8.7
2016-Jul-17 18:24N 50°39' E 000°35'3110.6
2016-Jul-17 15:32N 50°57' E 001°14'1110.9
2016-Jul-17 14:33N 51°04' E 001°27'10 9.9
2016-Jul-17 13:33N 51°10' E 001°39'9 8.8
2016-Jul-17 12:33N 51°17' E 001°48'9 8.6
2016-Jul-17 11:33N 51°24' E 001°55'9 8.9
2016-Jul-17 10:33N 51°32' E 002°03'10 9.5
2016-Jul-17 09:31N 51°39' E 002°14'15310.1
2016-Jul-16 18:27N 53°34' E 005°00'8 9.1
2016-Jul-16 17:33N 53°36' E 005°13'8 8.2
2016-Jul-16 16:33N 53°39' E 005°26'8 8.3
2016-Jul-16 15:34N 53°42' E 005°39'  

Dump ship's entire track history